sensor_id;sensor_type;location;lat;lon;timestamp;P1;durP1;ratioP1;P2;durP2;ratioP2
29938;SDS011;16799;50.844;5.304;2023-02-28T00:00:15;9.40;;;5.07;;
29938;SDS011;16799;50.844;5.304;2023-02-28T00:02:41;5.37;;;4.97;;
29938;SDS011;16799;50.844;5.304;2023-02-28T00:05:09;7.03;;;6.37;;
29938;SDS011;16799;50.844;5.304;2023-02-28T00:07:36;6.43;;;5.97;;
29938;SDS011;16799;50.844;5.304;2023-02-28T00:10:02;6.00;;;5.60;;
29938;SDS011;16799;50.844;5.304;2023-02-28T00:12:29;4.97;;;4.57;;
29938;SDS011;16799;50.844;5.304;2023-02-28T00:14:55;10.27;;;6.33;;
29938;SDS011;16799;50.844;5.304;2023-02-28T00:17:20;7.10;;;4.90;;
29938;SDS011;16799;50.844;5.304;2023-02-28T00:19:50;5.73;;;5.17;;
29938;SDS011;16799;50.844;5.304;2023-02-28T00:22:17;6.43;;;5.20;;
29938;SDS011;16799;50.844;5.304;2023-02-28T00:24:44;8.60;;;5.77;;
29938;SDS011;16799;50.844;5.304;2023-02-28T00:27:10;5.43;;;5.03;;
29938;SDS011;16799;50.844;5.304;2023-02-28T00:29:36;6.20;;;5.60;;
29938;SDS011;16799;50.844;5.304;2023-02-28T00:32:02;7.00;;;6.17;;
29938;SDS011;16799;50.844;5.304;2023-02-28T00:34:29;7.33;;;5.67;;
29938;SDS011;16799;50.844;5.304;2023-02-28T00:36:55;5.50;;;5.10;;
29938;SDS011;16799;50.844;5.304;2023-02-28T00:39:21;6.67;;;6.10;;
29938;SDS011;16799;50.844;5.304;2023-02-28T00:41:47;6.10;;;5.60;;
29938;SDS011;16799;50.844;5.304;2023-02-28T00:44:12;9.10;;;6.20;;
29938;SDS011;16799;50.844;5.304;2023-02-28T00:46:38;6.13;;;5.53;;
29938;SDS011;16799;50.844;5.304;2023-02-28T00:49:04;6.83;;;5.60;;
29938;SDS011;16799;50.844;5.304;2023-02-28T00:51:29;11.47;;;6.20;;
29938;SDS011;16799;50.844;5.304;2023-02-28T00:53:55;12.80;;;5.73;;
29938;SDS011;16799;50.844;5.304;2023-02-28T00:56:21;6.23;;;5.80;;
29938;SDS011;16799;50.844;5.304;2023-02-28T00:58:46;6.00;;;5.50;;
29938;SDS011;16799;50.844;5.304;2023-02-28T01:01:12;7.03;;;6.43;;
29938;SDS011;16799;50.844;5.304;2023-02-28T01:03:38;5.63;;;5.10;;
29938;SDS011;16799;50.844;5.304;2023-02-28T01:06:03;6.77;;;5.73;;
29938;SDS011;16799;50.844;5.304;2023-02-28T01:08:29;8.00;;;5.47;;
29938;SDS011;16799;50.844;5.304;2023-02-28T01:10:55;8.83;;;6.83;;
29938;SDS011;16799;50.844;5.304;2023-02-28T01:13:21;6.43;;;5.93;;
29938;SDS011;16799;50.844;5.304;2023-02-28T01:15:52;7.00;;;5.93;;
29938;SDS011;16799;50.844;5.304;2023-02-28T01:18:20;9.60;;;5.20;;
29938;SDS011;16799;50.844;5.304;2023-02-28T01:20:47;5.80;;;5.37;;
29938;SDS011;16799;50.844;5.304;2023-02-28T01:23:13;7.47;;;6.03;;
29938;SDS011;16799;50.844;5.304;2023-02-28T01:25:39;8.40;;;6.33;;
29938;SDS011;16799;50.844;5.304;2023-02-28T01:28:05;7.03;;;6.00;;
29938;SDS011;16799;50.844;5.304;2023-02-28T01:30:31;6.77;;;6.17;;
29938;SDS011;16799;50.844;5.304;2023-02-28T01:32:57;7.10;;;5.37;;
29938;SDS011;16799;50.844;5.304;2023-02-28T01:35:23;7.73;;;6.27;;
29938;SDS011;16799;50.844;5.304;2023-02-28T01:37:48;8.23;;;7.23;;
29938;SDS011;16799;50.844;5.304;2023-02-28T01:40:14;6.03;;;5.53;;
29938;SDS011;16799;50.844;5.304;2023-02-28T01:42:40;6.17;;;5.60;;
29938;SDS011;16799;50.844;5.304;2023-02-28T01:47:55;6.90;;;5.73;;
29938;SDS011;16799;50.844;5.304;2023-02-28T01:50:34;6.23;;;5.83;;
29938;SDS011;16799;50.844;5.304;2023-02-28T01:53:04;10.10;;;7.00;;
29938;SDS011;16799;50.844;5.304;2023-02-28T01:55:33;18.07;;;7.50;;
29938;SDS011;16799;50.844;5.304;2023-02-28T01:58:00;9.17;;;6.43;;
29938;SDS011;16799;50.844;5.304;2023-02-28T02:00:29;6.03;;;5.43;;
29938;SDS011;16799;50.844;5.304;2023-02-28T02:02:57;10.47;;;6.30;;
29938;SDS011;16799;50.844;5.304;2023-02-28T02:05:26;15.47;;;7.33;;
29938;SDS011;16799;50.844;5.304;2023-02-28T02:07:56;10.30;;;6.27;;
29938;SDS011;16799;50.844;5.304;2023-02-28T02:10:31;6.07;;;5.10;;
29938;SDS011;16799;50.844;5.304;2023-02-28T02:13:17;8.60;;;5.77;;
29938;SDS011;16799;50.844;5.304;2023-02-28T02:24:47;6.53;;;5.90;;
29938;SDS011;16799;50.844;5.304;2023-02-28T02:41:18;7.83;;;5.63;;
29938;SDS011;16799;50.844;5.304;2023-02-28T02:44:12;7.10;;;6.43;;
29938;SDS011;16799;50.844;5.304;2023-02-28T02:46:43;8.00;;;6.30;;
29938;SDS011;16799;50.844;5.304;2023-02-28T02:49:19;7.33;;;6.50;;
29938;SDS011;16799;50.844;5.304;2023-02-28T02:51:53;10.23;;;6.50;;
29938;SDS011;16799;50.844;5.304;2023-02-28T02:54:23;13.37;;;8.77;;
29938;SDS011;16799;50.844;5.304;2023-02-28T02:56:54;7.50;;;6.80;;
29938;SDS011;16799;50.844;5.304;2023-02-28T02:59:25;6.73;;;6.17;;
29938;SDS011;16799;50.844;5.304;2023-02-28T03:01:58;6.90;;;6.40;;
29938;SDS011;16799;50.844;5.304;2023-02-28T03:04:27;6.10;;;5.60;;
29938;SDS011;16799;50.844;5.304;2023-02-28T03:06:57;6.80;;;6.13;;
29938;SDS011;16799;50.844;5.304;2023-02-28T03:09:23;6.90;;;6.17;;
29938;SDS011;16799;50.844;5.304;2023-02-28T03:11:51;7.67;;;6.53;;
29938;SDS011;16799;50.844;5.304;2023-02-28T03:20:14;7.83;;;7.07;;
29938;SDS011;16799;50.844;5.304;2023-02-28T03:23:16;7.37;;;5.97;;
29938;SDS011;16799;50.844;5.304;2023-02-28T03:26:11;9.20;;;6.90;;
29938;SDS011;16799;50.844;5.304;2023-02-28T03:32:00;7.87;;;6.23;;
29938;SDS011;16799;50.844;5.304;2023-02-28T03:34:52;7.37;;;6.70;;
29938;SDS011;16799;50.844;5.304;2023-02-28T03:37:26;8.20;;;6.17;;
29938;SDS011;16799;50.844;5.304;2023-02-28T03:40:01;6.80;;;6.30;;
29938;SDS011;16799;50.844;5.304;2023-02-28T03:42:34;11.83;;;7.40;;
29938;SDS011;16799;50.844;5.304;2023-02-28T03:45:09;7.83;;;7.13;;
29938;SDS011;16799;50.844;5.304;2023-02-28T03:47:38;10.10;;;6.40;;
29938;SDS011;16799;50.844;5.304;2023-02-28T03:50:20;8.17;;;6.73;;
29938;SDS011;16799;50.844;5.304;2023-02-28T03:52:50;8.07;;;7.30;;
29938;SDS011;16799;50.844;5.304;2023-02-28T03:55:26;6.77;;;6.27;;
29938;SDS011;16799;50.844;5.304;2023-02-28T04:00:45;12.07;;;7.37;;
29938;SDS011;16799;50.844;5.304;2023-02-28T04:03:13;7.80;;;7.00;;
29938;SDS011;16799;50.844;5.304;2023-02-28T04:05:50;7.80;;;7.10;;
29938;SDS011;16799;50.844;5.304;2023-02-28T04:08:18;8.87;;;6.70;;
29938;SDS011;16799;50.844;5.304;2023-02-28T04:10:45;8.17;;;7.47;;
29938;SDS011;16799;50.844;5.304;2023-02-28T04:13:16;8.23;;;7.50;;
29938;SDS011;16799;50.844;5.304;2023-02-28T04:15:42;9.80;;;7.87;;
29938;SDS011;16799;50.844;5.304;2023-02-28T04:18:08;10.37;;;8.20;;
29938;SDS011;16799;50.844;5.304;2023-02-28T04:20:33;11.03;;;7.77;;
29938;SDS011;16799;50.844;5.304;2023-02-28T04:22:59;10.70;;;7.07;;
29938;SDS011;16799;50.844;5.304;2023-02-28T04:25:24;13.67;;;7.30;;
29938;SDS011;16799;50.844;5.304;2023-02-28T04:27:50;10.87;;;7.27;;
29938;SDS011;16799;50.844;5.304;2023-02-28T04:30:16;8.67;;;7.73;;
29938;SDS011;16799;50.844;5.304;2023-02-28T04:32:41;8.63;;;7.83;;
29938;SDS011;16799;50.844;5.304;2023-02-28T04:35:07;11.60;;;8.07;;
29938;SDS011;16799;50.844;5.304;2023-02-28T04:37:33;12.13;;;7.60;;
29938;SDS011;16799;50.844;5.304;2023-02-28T04:40:00;10.00;;;8.37;;
29938;SDS011;16799;50.844;5.304;2023-02-28T04:42:26;9.07;;;7.60;;
29938;SDS011;16799;50.844;5.304;2023-02-28T04:44:52;9.23;;;7.60;;
29938;SDS011;16799;50.844;5.304;2023-02-28T04:47:17;9.83;;;7.33;;
29938;SDS011;16799;50.844;5.304;2023-02-28T04:49:43;9.40;;;7.57;;
29938;SDS011;16799;50.844;5.304;2023-02-28T04:52:09;9.90;;;7.80;;
29938;SDS011;16799;50.844;5.304;2023-02-28T04:54:35;9.30;;;8.50;;
29938;SDS011;16799;50.844;5.304;2023-02-28T04:57:03;16.27;;;7.30;;
29938;SDS011;16799;50.844;5.304;2023-02-28T04:59:29;8.43;;;6.77;;
29938;SDS011;16799;50.844;5.304;2023-02-28T05:01:55;13.13;;;7.60;;
29938;SDS011;16799;50.844;5.304;2023-02-28T05:04:20;8.90;;;8.10;;
29938;SDS011;16799;50.844;5.304;2023-02-28T05:06:46;10.53;;;7.40;;
29938;SDS011;16799;50.844;5.304;2023-02-28T05:09:11;10.87;;;8.13;;
29938;SDS011;16799;50.844;5.304;2023-02-28T05:11:37;11.87;;;7.73;;
29938;SDS011;16799;50.844;5.304;2023-02-28T05:14:05;7.80;;;7.00;;
29938;SDS011;16799;50.844;5.304;2023-02-28T05:16:35;8.90;;;7.13;;
29938;SDS011;16799;50.844;5.304;2023-02-28T05:19:00;10.63;;;9.70;;
29938;SDS011;16799;50.844;5.304;2023-02-28T05:23:54;8.70;;;7.80;;
29938;SDS011;16799;50.844;5.304;2023-02-28T05:26:20;8.90;;;7.77;;
29938;SDS011;16799;50.844;5.304;2023-02-28T05:28:46;9.43;;;7.97;;
29938;SDS011;16799;50.844;5.304;2023-02-28T05:31:12;7.63;;;7.03;;
29938;SDS011;16799;50.844;5.304;2023-02-28T05:33:38;9.70;;;8.47;;
29938;SDS011;16799;50.844;5.304;2023-02-28T05:36:04;10.33;;;7.97;;
29938;SDS011;16799;50.844;5.304;2023-02-28T05:38:30;9.43;;;8.50;;
29938;SDS011;16799;50.844;5.304;2023-02-28T05:40:56;10.17;;;8.50;;
29938;SDS011;16799;50.844;5.304;2023-02-28T05:43:22;10.50;;;7.83;;
29938;SDS011;16799;50.844;5.304;2023-02-28T05:45:48;9.17;;;8.40;;
29938;SDS011;16799;50.844;5.304;2023-02-28T05:48:14;10.37;;;9.30;;
29938;SDS011;16799;50.844;5.304;2023-02-28T05:50:40;11.37;;;10.10;;
29938;SDS011;16799;50.844;5.304;2023-02-28T05:53:07;11.33;;;9.83;;
29938;SDS011;16799;50.844;5.304;2023-02-28T05:55:33;12.90;;;9.20;;
29938;SDS011;16799;50.844;5.304;2023-02-28T05:58:00;9.47;;;8.67;;
29938;SDS011;16799;50.844;5.304;2023-02-28T06:00:26;14.30;;;8.70;;
29938;SDS011;16799;50.844;5.304;2023-02-28T06:02:52;11.73;;;10.57;;
29938;SDS011;16799;50.844;5.304;2023-02-28T06:05:21;10.33;;;9.33;;
29938;SDS011;16799;50.844;5.304;2023-02-28T06:07:46;11.00;;;9.70;;
29938;SDS011;16799;50.844;5.304;2023-02-28T06:10:12;9.00;;;8.30;;
29938;SDS011;16799;50.844;5.304;2023-02-28T06:12:38;9.57;;;8.57;;
29938;SDS011;16799;50.844;5.304;2023-02-28T06:15:06;9.90;;;8.30;;
29938;SDS011;16799;50.844;5.304;2023-02-28T06:17:36;8.30;;;7.57;;
29938;SDS011;16799;50.844;5.304;2023-02-28T06:20:02;10.70;;;9.30;;
29938;SDS011;16799;50.844;5.304;2023-02-28T06:22:28;14.60;;;9.67;;
29938;SDS011;16799;50.844;5.304;2023-02-28T06:24:53;10.67;;;8.13;;
29938;SDS011;16799;50.844;5.304;2023-02-28T06:27:20;12.80;;;8.70;;
29938;SDS011;16799;50.844;5.304;2023-02-28T06:29:47;21.80;;;10.00;;
29938;SDS011;16799;50.844;5.304;2023-02-28T06:32:12;12.47;;;9.73;;
29938;SDS011;16799;50.844;5.304;2023-02-28T06:34:38;11.73;;;10.57;;
29938;SDS011;16799;50.844;5.304;2023-02-28T06:37:03;11.37;;;8.80;;
29938;SDS011;16799;50.844;5.304;2023-02-28T06:39:29;11.10;;;8.50;;
29938;SDS011;16799;50.844;5.304;2023-02-28T06:41:56;13.40;;;10.23;;
29938;SDS011;16799;50.844;5.304;2023-02-28T06:44:22;9.60;;;8.60;;
29938;SDS011;16799;50.844;5.304;2023-02-28T06:46:48;17.03;;;11.23;;
29938;SDS011;16799;50.844;5.304;2023-02-28T06:49:14;14.50;;;10.70;;
29938;SDS011;16799;50.844;5.304;2023-02-28T06:51:42;11.30;;;10.10;;
29938;SDS011;16799;50.844;5.304;2023-02-28T06:54:10;14.37;;;10.37;;
29938;SDS011;16799;50.844;5.304;2023-02-28T06:56:36;13.57;;;8.13;;
29938;SDS011;16799;50.844;5.304;2023-02-28T06:59:02;11.97;;;9.27;;
29938;SDS011;16799;50.844;5.304;2023-02-28T07:01:28;10.63;;;9.13;;
29938;SDS011;16799;50.844;5.304;2023-02-28T07:03:56;12.50;;;9.00;;
29938;SDS011;16799;50.844;5.304;2023-02-28T07:06:22;9.57;;;8.67;;
29938;SDS011;16799;50.844;5.304;2023-02-28T07:08:49;8.83;;;7.93;;
29938;SDS011;16799;50.844;5.304;2023-02-28T07:11:18;9.33;;;8.43;;
29938;SDS011;16799;50.844;5.304;2023-02-28T07:13:47;8.87;;;7.97;;
29938;SDS011;16799;50.844;5.304;2023-02-28T07:16:13;11.10;;;9.03;;
29938;SDS011;16799;50.844;5.304;2023-02-28T07:18:39;11.57;;;8.20;;
29938;SDS011;16799;50.844;5.304;2023-02-28T07:21:06;9.70;;;8.70;;
29938;SDS011;16799;50.844;5.304;2023-02-28T07:23:33;15.60;;;9.37;;
29938;SDS011;16799;50.844;5.304;2023-02-28T07:25:59;9.97;;;8.30;;
29938;SDS011;16799;50.844;5.304;2023-02-28T07:28:25;17.77;;;9.67;;
29938;SDS011;16799;50.844;5.304;2023-02-28T07:30:51;11.70;;;8.97;;
29938;SDS011;16799;50.844;5.304;2023-02-28T07:33:17;9.50;;;8.33;;
29938;SDS011;16799;50.844;5.304;2023-02-28T07:35:43;10.23;;;9.00;;
29938;SDS011;16799;50.844;5.304;2023-02-28T07:38:09;11.53;;;9.60;;
29938;SDS011;16799;50.844;5.304;2023-02-28T07:40:35;11.87;;;9.90;;
29938;SDS011;16799;50.844;5.304;2023-02-28T07:43:01;16.70;;;8.70;;
29938;SDS011;16799;50.844;5.304;2023-02-28T07:45:28;10.17;;;8.20;;
29938;SDS011;16799;50.844;5.304;2023-02-28T07:47:54;10.13;;;7.73;;
29938;SDS011;16799;50.844;5.304;2023-02-28T07:50:20;9.60;;;7.97;;
29938;SDS011;16799;50.844;5.304;2023-02-28T07:52:46;11.77;;;8.40;;
29938;SDS011;16799;50.844;5.304;2023-02-28T07:55:12;10.67;;;7.40;;
29938;SDS011;16799;50.844;5.304;2023-02-28T07:57:39;8.77;;;7.93;;
29938;SDS011;16799;50.844;5.304;2023-02-28T08:00:06;7.10;;;6.60;;
29938;SDS011;16799;50.844;5.304;2023-02-28T08:02:34;8.60;;;7.80;;
29938;SDS011;16799;50.844;5.304;2023-02-28T08:05:00;8.87;;;8.00;;
29938;SDS011;16799;50.844;5.304;2023-02-28T08:07:26;9.50;;;7.10;;
29938;SDS011;16799;50.844;5.304;2023-02-28T08:09:52;8.57;;;7.77;;
29938;SDS011;16799;50.844;5.304;2023-02-28T08:12:18;9.27;;;6.80;;
29938;SDS011;16799;50.844;5.304;2023-02-28T08:14:43;10.33;;;7.90;;
29938;SDS011;16799;50.844;5.304;2023-02-28T08:17:10;8.60;;;7.37;;
29938;SDS011;16799;50.844;5.304;2023-02-28T08:19:36;7.50;;;6.80;;
29938;SDS011;16799;50.844;5.304;2023-02-28T08:22:01;12.90;;;7.83;;
29938;SDS011;16799;50.844;5.304;2023-02-28T08:24:27;10.60;;;6.80;;
29938;SDS011;16799;50.844;5.304;2023-02-28T08:26:53;9.73;;;7.10;;
29938;SDS011;16799;50.844;5.304;2023-02-28T08:29:19;8.23;;;7.63;;
29938;SDS011;16799;50.844;5.304;2023-02-28T08:31:45;12.67;;;6.63;;
29938;SDS011;16799;50.844;5.304;2023-02-28T08:34:13;6.70;;;6.10;;
29938;SDS011;16799;50.844;5.304;2023-02-28T08:36:40;7.10;;;6.50;;
29938;SDS011;16799;50.844;5.304;2023-02-28T08:39:07;7.40;;;6.50;;
29938;SDS011;16799;50.844;5.304;2023-02-28T08:41:33;9.77;;;6.70;;
29938;SDS011;16799;50.844;5.304;2023-02-28T08:43:59;7.00;;;6.40;;
29938;SDS011;16799;50.844;5.304;2023-02-28T08:46:25;8.10;;;5.80;;
29938;SDS011;16799;50.844;5.304;2023-02-28T08:48:55;6.40;;;5.73;;
29938;SDS011;16799;50.844;5.304;2023-02-28T08:51:25;6.57;;;6.00;;
29938;SDS011;16799;50.844;5.304;2023-02-28T08:53:58;6.80;;;6.00;;
29938;SDS011;16799;50.844;5.304;2023-02-28T08:56:25;11.27;;;5.93;;
29938;SDS011;16799;50.844;5.304;2023-02-28T08:58:51;8.83;;;5.63;;
29938;SDS011;16799;50.844;5.304;2023-02-28T09:01:21;5.37;;;4.70;;
29938;SDS011;16799;50.844;5.304;2023-02-28T09:03:49;5.90;;;4.40;;
29938;SDS011;16799;50.844;5.304;2023-02-28T09:06:17;8.17;;;5.40;;
29938;SDS011;16799;50.844;5.304;2023-02-28T09:08:44;5.40;;;5.00;;
29938;SDS011;16799;50.844;5.304;2023-02-28T09:11:10;5.30;;;4.80;;
29938;SDS011;16799;50.844;5.304;2023-02-28T09:13:37;6.03;;;5.53;;
29938;SDS011;16799;50.844;5.304;2023-02-28T09:16:04;4.70;;;4.20;;
29938;SDS011;16799;50.844;5.304;2023-02-28T09:18:33;11.63;;;4.70;;
29938;SDS011;16799;50.844;5.304;2023-02-28T09:21:02;6.50;;;4.00;;
29938;SDS011;16799;50.844;5.304;2023-02-28T09:23:35;4.70;;;4.37;;
29938;SDS011;16799;50.844;5.304;2023-02-28T09:26:03;3.23;;;3.03;;
29938;SDS011;16799;50.844;5.304;2023-02-28T09:28:29;3.33;;;3.13;;
29938;SDS011;16799;50.844;5.304;2023-02-28T09:30:55;3.93;;;3.50;;
29938;SDS011;16799;50.844;5.304;2023-02-28T09:33:23;5.27;;;3.43;;
29938;SDS011;16799;50.844;5.304;2023-02-28T09:35:50;3.67;;;3.40;;
29938;SDS011;16799;50.844;5.304;2023-02-28T09:38:17;3.53;;;3.33;;
29938;SDS011;16799;50.844;5.304;2023-02-28T09:40:53;2.90;;;2.70;;
29938;SDS011;16799;50.844;5.304;2023-02-28T09:43:22;3.30;;;3.10;;
29938;SDS011;16799;50.844;5.304;2023-02-28T09:46:08;3.47;;;3.17;;
29938;SDS011;16799;50.844;5.304;2023-02-28T09:48:41;3.20;;;2.67;;
29938;SDS011;16799;50.844;5.304;2023-02-28T09:53:39;3.40;;;3.20;;
29938;SDS011;16799;50.844;5.304;2023-02-28T09:56:48;5.17;;;3.03;;
29938;SDS011;16799;50.844;5.304;2023-02-28T10:01:57;2.40;;;1.70;;
29938;SDS011;16799;50.844;5.304;2023-02-28T10:04:37;2.63;;;2.43;;
29938;SDS011;16799;50.844;5.304;2023-02-28T10:13:24;2.87;;;2.70;;
29938;SDS011;16799;50.844;5.304;2023-02-28T10:16:11;9.27;;;2.90;;
29938;SDS011;16799;50.844;5.304;2023-02-28T10:18:46;6.00;;;4.43;;
29938;SDS011;16799;50.844;5.304;2023-02-28T10:21:26;4.90;;;3.50;;
29938;SDS011;16799;50.844;5.304;2023-02-28T10:24:11;3.40;;;3.20;;
29938;SDS011;16799;50.844;5.304;2023-02-28T10:26:45;4.03;;;3.47;;
29938;SDS011;16799;50.844;5.304;2023-02-28T10:29:13;3.13;;;2.83;;
29938;SDS011;16799;50.844;5.304;2023-02-28T10:31:39;3.27;;;2.97;;
29938;SDS011;16799;50.844;5.304;2023-02-28T10:34:05;2.77;;;2.57;;
29938;SDS011;16799;50.844;5.304;2023-02-28T10:36:32;9.43;;;2.90;;
29938;SDS011;16799;50.844;5.304;2023-02-28T10:38:58;2.90;;;2.33;;
29938;SDS011;16799;50.844;5.304;2023-02-28T10:41:29;3.83;;;2.80;;
29938;SDS011;16799;50.844;5.304;2023-02-28T10:44:17;3.23;;;2.90;;
29938;SDS011;16799;50.844;5.304;2023-02-28T10:46:46;3.77;;;2.73;;
29938;SDS011;16799;50.844;5.304;2023-02-28T10:49:14;4.23;;;2.57;;
29938;SDS011;16799;50.844;5.304;2023-02-28T10:51:52;2.93;;;2.73;;
29938;SDS011;16799;50.844;5.304;2023-02-28T10:54:35;2.23;;;2.13;;
29938;SDS011;16799;50.844;5.304;2023-02-28T10:57:16;2.67;;;2.47;;
29938;SDS011;16799;50.844;5.304;2023-02-28T10:59:45;3.23;;;2.50;;
29938;SDS011;16799;50.844;5.304;2023-02-28T11:02:33;2.57;;;2.37;;
29938;SDS011;16799;50.844;5.304;2023-02-28T11:04:56;2.53;;;2.20;;
29938;SDS011;16799;50.844;5.304;2023-02-28T11:07:23;1.97;;;1.83;;
29938;SDS011;16799;50.844;5.304;2023-02-28T11:09:50;4.60;;;2.57;;
29938;SDS011;16799;50.844;5.304;2023-02-28T11:12:22;1.73;;;1.63;;
29938;SDS011;16799;50.844;5.304;2023-02-28T11:14:49;2.23;;;2.03;;
29938;SDS011;16799;50.844;5.304;2023-02-28T11:17:22;1.70;;;1.60;;
29938;SDS011;16799;50.844;5.304;2023-02-28T11:19:51;6.17;;;1.83;;
29938;SDS011;16799;50.844;5.304;2023-02-28T11:22:29;3.00;;;2.70;;
29938;SDS011;16799;50.844;5.304;2023-02-28T11:25:46;2.10;;;2.00;;
29938;SDS011;16799;50.844;5.304;2023-02-28T11:27:50;2.40;;;2.20;;
29938;SDS011;16799;50.844;5.304;2023-02-28T11:30:32;3.30;;;2.93;;
29938;SDS011;16799;50.844;5.304;2023-02-28T11:33:37;11.10;;;3.23;;
29938;SDS011;16799;50.844;5.304;2023-02-28T11:35:55;2.13;;;1.93;;
29938;SDS011;16799;50.844;5.304;2023-02-28T11:38:28;1.90;;;1.80;;
29938;SDS011;16799;50.844;5.304;2023-02-28T11:46:06;2.33;;;2.13;;
29938;SDS011;16799;50.844;5.304;2023-02-28T11:49:06;1.83;;;1.73;;
29938;SDS011;16799;50.844;5.304;2023-02-28T11:52:01;6.70;;;1.83;;
29938;SDS011;16799;50.844;5.304;2023-02-28T12:00:11;4.83;;;1.97;;
29938;SDS011;16799;50.844;5.304;2023-02-28T12:09:04;2.13;;;1.67;;
29938;SDS011;16799;50.844;5.304;2023-02-28T12:11:40;2.27;;;2.10;;
29938;SDS011;16799;50.844;5.304;2023-02-28T12:27:43;1.80;;;1.70;;
29938;SDS011;16799;50.844;5.304;2023-02-28T12:33:02;2.10;;;2.00;;
29938;SDS011;16799;50.844;5.304;2023-02-28T12:35:38;2.07;;;1.97;;
29938;SDS011;16799;50.844;5.304;2023-02-28T12:38:25;2.10;;;2.00;;
29938;SDS011;16799;50.844;5.304;2023-02-28T12:43:22;2.27;;;2.13;;
29938;SDS011;16799;50.844;5.304;2023-02-28T12:46:03;2.83;;;2.30;;
29938;SDS011;16799;50.844;5.304;2023-02-28T12:51:22;4.20;;;2.47;;
29938;SDS011;16799;50.844;5.304;2023-02-28T12:53:53;2.13;;;2.03;;
29938;SDS011;16799;50.844;5.304;2023-02-28T13:05:29;4.10;;;2.93;;
29938;SDS011;16799;50.844;5.304;2023-02-28T13:11:22;5.53;;;3.17;;
29938;SDS011;16799;50.844;5.304;2023-02-28T13:13:56;3.40;;;2.80;;
29938;SDS011;16799;50.844;5.304;2023-02-28T13:16:23;2.53;;;2.37;;
29938;SDS011;16799;50.844;5.304;2023-02-28T13:18:49;2.30;;;2.10;;
29938;SDS011;16799;50.844;5.304;2023-02-28T13:21:26;2.93;;;2.43;;
29938;SDS011;16799;50.844;5.304;2023-02-28T13:32:18;3.30;;;3.10;;
29938;SDS011;16799;50.844;5.304;2023-02-28T13:35:15;4.63;;;2.80;;
29938;SDS011;16799;50.844;5.304;2023-02-28T13:45:28;3.03;;;2.80;;
29938;SDS011;16799;50.844;5.304;2023-02-28T13:47:41;2.93;;;2.73;;
29938;SDS011;16799;50.844;5.304;2023-02-28T13:52:44;6.83;;;2.80;;
29938;SDS011;16799;50.844;5.304;2023-02-28T14:06:36;2.90;;;2.70;;
29938;SDS011;16799;50.844;5.304;2023-02-28T14:09:16;2.70;;;2.50;;
29938;SDS011;16799;50.844;5.304;2023-02-28T14:11:49;2.60;;;2.40;;
29938;SDS011;16799;50.844;5.304;2023-02-28T14:17:01;2.93;;;2.73;;
29938;SDS011;16799;50.844;5.304;2023-02-28T14:19:38;3.00;;;2.47;;
29938;SDS011;16799;50.844;5.304;2023-02-28T14:27:17;5.90;;;3.13;;
29938;SDS011;16799;50.844;5.304;2023-02-28T14:35:40;3.60;;;3.30;;
29938;SDS011;16799;50.844;5.304;2023-02-28T14:38:33;3.50;;;3.30;;
29938;SDS011;16799;50.844;5.304;2023-02-28T14:41:04;3.50;;;3.23;;
29938;SDS011;16799;50.844;5.304;2023-02-28T14:43:47;5.97;;;2.77;;
29938;SDS011;16799;50.844;5.304;2023-02-28T14:46:20;3.67;;;2.50;;
29938;SDS011;16799;50.844;5.304;2023-02-28T14:48:50;2.80;;;2.20;;
29938;SDS011;16799;50.844;5.304;2023-02-28T14:51:20;3.73;;;2.87;;
29938;SDS011;16799;50.844;5.304;2023-02-28T14:53:48;2.97;;;2.70;;
29938;SDS011;16799;50.844;5.304;2023-02-28T14:56:27;2.77;;;2.60;;
29938;SDS011;16799;50.844;5.304;2023-02-28T14:59:04;3.87;;;2.80;;
29938;SDS011;16799;50.844;5.304;2023-02-28T15:01:31;3.43;;;3.13;;
29938;SDS011;16799;50.844;5.304;2023-02-28T15:04:12;3.43;;;3.20;;
29938;SDS011;16799;50.844;5.304;2023-02-28T15:07:11;2.73;;;2.50;;
29938;SDS011;16799;50.844;5.304;2023-02-28T15:09:38;6.40;;;2.90;;
29938;SDS011;16799;50.844;5.304;2023-02-28T15:12:04;3.07;;;2.87;;
29938;SDS011;16799;50.844;5.304;2023-02-28T15:14:30;2.90;;;2.70;;
29938;SDS011;16799;50.844;5.304;2023-02-28T15:17:02;6.57;;;3.20;;
29938;SDS011;16799;50.844;5.304;2023-02-28T15:19:37;3.80;;;3.60;;
29938;SDS011;16799;50.844;5.304;2023-02-28T15:22:14;3.33;;;3.13;;
29938;SDS011;16799;50.844;5.304;2023-02-28T15:27:24;3.60;;;3.40;;
29938;SDS011;16799;50.844;5.304;2023-02-28T15:30:13;5.47;;;2.23;;
29938;SDS011;16799;50.844;5.304;2023-02-28T15:32:42;3.23;;;2.80;;
29938;SDS011;16799;50.844;5.304;2023-02-28T15:35:27;7.33;;;3.40;;
29938;SDS011;16799;50.844;5.304;2023-02-28T15:37:56;2.57;;;2.37;;
29938;SDS011;16799;50.844;5.304;2023-02-28T15:40:31;3.00;;;2.80;;
29938;SDS011;16799;50.844;5.304;2023-02-28T15:43:13;4.00;;;3.30;;
29938;SDS011;16799;50.844;5.304;2023-02-28T15:45:47;3.27;;;2.80;;
29938;SDS011;16799;50.844;5.304;2023-02-28T15:48:23;3.47;;;3.27;;
29938;SDS011;16799;50.844;5.304;2023-02-28T15:51:01;7.23;;;3.13;;
29938;SDS011;16799;50.844;5.304;2023-02-28T15:53:41;6.60;;;3.17;;
29938;SDS011;16799;50.844;5.304;2023-02-28T15:56:28;2.87;;;2.67;;
29938;SDS011;16799;50.844;5.304;2023-02-28T15:59:06;3.80;;;3.50;;
29938;SDS011;16799;50.844;5.304;2023-02-28T16:01:38;4.00;;;3.00;;
29938;SDS011;16799;50.844;5.304;2023-02-28T16:04:05;3.77;;;3.43;;
29938;SDS011;16799;50.844;5.304;2023-02-28T16:06:43;5.17;;;3.70;;
29938;SDS011;16799;50.844;5.304;2023-02-28T16:09:25;4.20;;;2.97;;
29938;SDS011;16799;50.844;5.304;2023-02-28T16:11:53;5.80;;;3.67;;
29938;SDS011;16799;50.844;5.304;2023-02-28T16:14:21;3.80;;;3.53;;
29938;SDS011;16799;50.844;5.304;2023-02-28T16:16:50;3.50;;;3.20;;
29938;SDS011;16799;50.844;5.304;2023-02-28T16:19:21;3.30;;;2.90;;
29938;SDS011;16799;50.844;5.304;2023-02-28T16:21:48;3.47;;;3.27;;
29938;SDS011;16799;50.844;5.304;2023-02-28T16:24:14;3.03;;;2.83;;
29938;SDS011;16799;50.844;5.304;2023-02-28T16:26:41;3.93;;;3.47;;
29938;SDS011;16799;50.844;5.304;2023-02-28T16:29:13;3.10;;;2.80;;
29938;SDS011;16799;50.844;5.304;2023-02-28T16:31:44;3.67;;;3.47;;
29938;SDS011;16799;50.844;5.304;2023-02-28T16:34:09;3.63;;;3.37;;
29938;SDS011;16799;50.844;5.304;2023-02-28T16:36:35;3.83;;;3.63;;
29938;SDS011;16799;50.844;5.304;2023-02-28T16:39:01;3.13;;;2.93;;
29938;SDS011;16799;50.844;5.304;2023-02-28T16:41:28;5.80;;;2.90;;
29938;SDS011;16799;50.844;5.304;2023-02-28T16:43:54;3.30;;;3.10;;
29938;SDS011;16799;50.844;5.304;2023-02-28T16:46:30;9.27;;;3.03;;
29938;SDS011;16799;50.844;5.304;2023-02-28T16:48:58;3.90;;;3.27;;
29938;SDS011;16799;50.844;5.304;2023-02-28T16:51:24;4.27;;;3.87;;
29938;SDS011;16799;50.844;5.304;2023-02-28T16:53:49;2.90;;;2.70;;
29938;SDS011;16799;50.844;5.304;2023-02-28T16:56:17;3.70;;;3.40;;
29938;SDS011;16799;50.844;5.304;2023-02-28T16:58:44;4.23;;;3.10;;
29938;SDS011;16799;50.844;5.304;2023-02-28T17:01:11;4.97;;;3.00;;
29938;SDS011;16799;50.844;5.304;2023-02-28T17:03:37;6.23;;;4.00;;
29938;SDS011;16799;50.844;5.304;2023-02-28T17:06:03;7.03;;;3.50;;
29938;SDS011;16799;50.844;5.304;2023-02-28T17:08:30;3.23;;;3.00;;
29938;SDS011;16799;50.844;5.304;2023-02-28T17:10:57;3.67;;;3.37;;
29938;SDS011;16799;50.844;5.304;2023-02-28T17:13:23;3.60;;;3.20;;
29938;SDS011;16799;50.844;5.304;2023-02-28T17:15:49;4.03;;;3.63;;
29938;SDS011;16799;50.844;5.304;2023-02-28T17:18:15;2.70;;;2.50;;
29938;SDS011;16799;50.844;5.304;2023-02-28T17:20:46;4.40;;;4.00;;
29938;SDS011;16799;50.844;5.304;2023-02-28T17:23:11;4.93;;;4.30;;
29938;SDS011;16799;50.844;5.304;2023-02-28T17:25:37;3.70;;;3.47;;
29938;SDS011;16799;50.844;5.304;2023-02-28T17:28:03;5.40;;;4.00;;
29938;SDS011;16799;50.844;5.304;2023-02-28T17:30:31;6.90;;;4.07;;